createdAt,value
2018-08-14T00:00:49.256Z,6.60
2018-08-14T00:03:19.921Z,4.13
2018-08-14T00:05:50.055Z,3.87
2018-08-14T00:08:19.703Z,4.80
2018-08-14T00:10:49.391Z,4.13
2018-08-14T00:13:18.711Z,4.83
2018-08-14T00:15:49.199Z,5.40
2018-08-14T00:18:25.035Z,4.77
2018-08-14T00:20:54.397Z,3.97
2018-08-14T00:23:24.106Z,3.83
2018-08-14T00:25:54.099Z,3.60
2018-08-14T00:28:23.548Z,3.90
2018-08-14T00:30:53.110Z,4.33
2018-08-14T00:33:22.954Z,3.73
2018-08-14T00:35:52.508Z,3.73
2018-08-14T00:38:22.152Z,4.47
2018-08-14T00:40:52.499Z,3.50
2018-08-14T00:43:22.183Z,3.43
2018-08-14T00:45:51.916Z,3.70
2018-08-14T00:48:22.184Z,4.87
2018-08-14T00:50:52.018Z,4.83
2018-08-14T00:53:21.400Z,4.33
2018-08-14T00:55:51.244Z,3.70
2018-08-14T00:58:21.110Z,4.07
2018-08-14T01:00:51.737Z,3.57
2018-08-14T01:03:21.315Z,3.77
2018-08-14T01:05:51.583Z,3.40
2018-08-14T01:08:21.571Z,4.37
2018-08-14T01:10:51.501Z,4.50
2018-08-14T01:13:21.147Z,2.80
2018-08-14T01:15:50.958Z,2.87
2018-08-14T01:18:21.001Z,2.83
2018-08-14T01:20:53.322Z,2.93
2018-08-14T01:23:23.277Z,2.87
2018-08-14T01:25:53.028Z,2.93
2018-08-14T01:28:22.780Z,4.40
2018-08-14T01:30:59.460Z,3.50
2018-08-14T01:33:28.768Z,3.27
2018-08-14T01:35:58.770Z,2.70
2018-08-14T01:38:28.288Z,4.10
2018-08-14T01:40:59.579Z,2.87
2018-08-14T01:43:29.149Z,3.20
2018-08-14T01:45:58.896Z,2.90
2018-08-14T01:48:29.357Z,3.47
2018-08-14T01:50:58.816Z,3.20
2018-08-14T01:53:28.445Z,3.13
2018-08-14T01:55:58.578Z,3.07
2018-08-14T01:58:29.064Z,4.13
2018-08-14T02:00:58.779Z,3.47
2018-08-14T02:03:28.430Z,3.47
2018-08-14T02:05:59.299Z,4.93
2018-08-14T02:08:29.054Z,3.00
2018-08-14T02:10:58.914Z,3.53
2018-08-14T02:13:28.400Z,3.77
2018-08-14T02:15:58.494Z,3.33
2018-08-14T02:18:28.265Z,3.93
2018-08-14T02:20:59.036Z,3.03
2018-08-14T02:23:42.833Z,4.00
2018-08-14T02:26:11.556Z,3.37
2018-08-14T02:28:40.487Z,2.97
2018-08-14T02:31:17.947Z,3.30
2018-08-14T02:33:48.939Z,3.50
2018-08-14T02:36:18.642Z,3.13
2018-08-14T02:38:48.923Z,4.30
2018-08-14T02:41:18.846Z,3.17
2018-08-14T02:43:53.076Z,3.97
2018-08-14T02:46:24.909Z,3.50
2018-08-14T02:48:54.725Z,3.83
2018-08-14T02:51:24.022Z,3.33
2018-08-14T02:53:53.772Z,3.67
2018-08-14T02:56:23.146Z,3.43
2018-08-14T02:58:53.294Z,3.40
2018-08-14T03:01:23.299Z,3.80
2018-08-14T03:03:53.091Z,3.50
2018-08-14T03:06:22.750Z,5.03
2018-08-14T03:08:52.331Z,3.50
2018-08-14T03:11:23.041Z,3.50
2018-08-14T03:13:53.208Z,3.53
2018-08-14T03:16:22.617Z,4.80
2018-08-14T03:18:52.140Z,5.47
2018-08-14T03:21:28.955Z,3.43
2018-08-14T03:23:58.673Z,3.60
2018-08-14T03:26:28.489Z,3.80
2018-08-14T03:28:58.053Z,5.07
2018-08-14T03:31:27.567Z,3.73
2018-08-14T03:33:57.997Z,4.30
2018-08-14T03:36:28.736Z,4.07
2018-08-14T03:38:58.315Z,5.17
2018-08-14T03:41:28.289Z,4.63
2018-08-14T03:43:57.063Z,4.37
2018-08-14T03:46:26.455Z,3.97
2018-08-14T03:48:55.847Z,3.83
2018-08-14T03:51:25.317Z,4.00
2018-08-14T03:53:54.863Z,3.70
2018-08-14T03:56:41.624Z,6.10
2018-08-14T03:59:19.605Z,4.97
2018-08-14T04:01:48.871Z,7.10
2018-08-14T04:04:19.288Z,4.63
2018-08-14T04:06:49.411Z,4.93
2018-08-14T04:09:19.221Z,4.93
2018-08-14T04:11:49.143Z,4.17
2018-08-14T04:14:20.182Z,7.83
2018-08-14T04:16:49.894Z,6.23
2018-08-14T04:19:19.879Z,5.87
2018-08-14T04:21:50.004Z,5.23
2018-08-14T04:24:19.729Z,5.30
2018-08-14T04:26:49.607Z,6.93
2018-08-14T04:29:19.887Z,4.63
2018-08-14T04:31:49.218Z,5.83
2018-08-14T04:34:24.722Z,6.60
2018-08-14T04:36:54.447Z,5.63
2018-08-14T04:39:24.033Z,4.80
2018-08-14T04:41:53.282Z,6.10
2018-08-14T04:44:23.541Z,4.90
2018-08-14T04:46:53.467Z,5.23
2018-08-14T04:49:22.545Z,5.03
2018-08-14T04:51:51.957Z,7.77
2018-08-14T04:54:21.439Z,5.30
2018-08-14T04:56:50.743Z,7.20
2018-08-14T04:59:20.274Z,7.30
2018-08-14T05:01:49.889Z,6.40
2018-08-14T05:04:19.466Z,6.33
2018-08-14T05:06:49.556Z,7.87
2018-08-14T05:09:19.990Z,5.33
2018-08-14T05:11:49.654Z,7.87
2018-08-14T05:14:19.681Z,6.67
2018-08-14T05:16:49.329Z,8.83
2018-08-14T05:19:19.174Z,5.77
2018-08-14T05:21:49.574Z,7.07
2018-08-14T05:24:19.927Z,9.70
2018-08-14T05:26:49.908Z,9.57
2018-08-14T05:29:19.792Z,8.93
2018-08-14T05:31:49.613Z,7.17
2018-08-14T05:34:20.055Z,6.67
2018-08-14T05:37:02.191Z,8.13
2018-08-14T05:39:31.681Z,7.37
2018-08-14T05:42:00.892Z,8.83
2018-08-14T05:44:31.050Z,6.53
2018-08-14T05:47:00.417Z,7.43
2018-08-14T05:49:32.192Z,8.00
2018-08-14T05:52:01.443Z,7.43
2018-08-14T05:54:30.743Z,7.23
2018-08-14T05:56:59.974Z,9.10
2018-08-14T05:59:29.700Z,7.93
2018-08-14T06:01:58.957Z,8.23
2018-08-14T06:04:28.441Z,7.13
2018-08-14T06:06:57.894Z,7.10
2018-08-14T06:09:26.909Z,8.90
2018-08-14T06:11:56.299Z,6.60
2018-08-14T06:14:25.543Z,7.30
2018-08-14T06:16:55.028Z,9.83
2018-08-14T06:19:52.913Z,7.30
2018-08-14T06:22:22.290Z,7.77
2018-08-14T06:24:57.623Z,9.80
2018-08-14T06:27:26.755Z,7.07
2018-08-14T06:29:55.714Z,7.60
2018-08-14T06:32:24.883Z,7.53
2018-08-14T06:34:53.958Z,6.47
2018-08-14T06:37:23.145Z,9.03
2018-08-14T06:39:52.521Z,8.13
2018-08-14T06:42:21.732Z,7.27
2018-08-14T06:44:51.073Z,6.40
2018-08-14T06:47:21.500Z,7.67
2018-08-14T06:49:50.991Z,8.20
2018-08-14T06:52:20.204Z,7.63
2018-08-14T06:54:51.159Z,6.33
2018-08-14T06:57:26.808Z,9.23
2018-08-14T06:59:56.374Z,8.60
2018-08-14T07:02:26.222Z,8.50
2018-08-14T07:04:56.553Z,6.83
2018-08-14T07:07:27.380Z,8.60
2018-08-14T07:09:57.932Z,8.43
2018-08-14T07:12:27.134Z,7.13
2018-08-14T07:14:57.812Z,7.30
2018-08-14T07:17:27.200Z,10.07
2018-08-14T07:19:56.543Z,9.10
2018-08-14T07:22:25.769Z,8.53
2018-08-14T07:24:54.885Z,8.77
2018-08-14T07:27:24.190Z,9.73
2018-08-14T07:29:53.453Z,9.60
2018-08-14T07:32:23.879Z,6.80
2018-08-14T07:34:54.246Z,7.07
2018-08-14T07:37:24.659Z,8.27
2018-08-14T07:39:54.608Z,6.77
2018-08-14T07:42:24.404Z,9.90
2018-08-14T07:44:53.435Z,7.00
2018-08-14T07:47:22.718Z,8.03
2018-08-14T07:49:52.335Z,8.20
2018-08-14T07:52:22.746Z,5.47
2018-08-14T07:54:52.423Z,5.80
2018-08-14T07:57:21.989Z,4.90
2018-08-14T07:59:52.730Z,5.67
2018-08-14T08:02:22.180Z,6.20
2018-08-14T08:04:52.450Z,6.13
2018-08-14T08:07:22.132Z,4.87
2018-08-14T08:09:51.753Z,7.07
2018-08-14T08:12:21.208Z,7.20
2018-08-14T08:14:50.776Z,5.53
2018-08-14T08:17:20.201Z,4.97
2018-08-14T08:19:50.124Z,5.50
2018-08-14T08:22:19.685Z,5.57
2018-08-14T08:24:49.858Z,8.43
2018-08-14T08:27:21.508Z,5.73
2018-08-14T08:29:51.012Z,5.60
2018-08-14T08:32:21.437Z,6.40
2018-08-14T08:34:51.315Z,7.60
2018-08-14T08:37:20.686Z,5.30
2018-08-14T08:39:50.447Z,5.00
2018-08-14T08:42:20.236Z,5.80
2018-08-14T08:44:49.945Z,5.03
2018-08-14T08:47:19.310Z,4.23
2018-08-14T08:49:49.706Z,4.47
2018-08-14T08:52:19.364Z,4.93
2018-08-14T08:55:04.087Z,4.03
2018-08-14T08:57:47.995Z,4.30
2018-08-14T09:00:20.682Z,4.77
2018-08-14T09:03:01.395Z,4.70
2018-08-14T09:05:43.459Z,4.53
2018-08-14T09:08:26.778Z,4.57
2018-08-14T09:11:06.484Z,4.10
2018-08-14T09:13:42.592Z,5.15
2018-08-14T09:16:26.461Z,4.17
2018-08-14T09:19:06.810Z,3.43
2018-08-14T09:21:46.221Z,4.07
2018-08-14T09:24:25.841Z,6.30
2018-08-14T09:27:06.585Z,8.00
2018-08-14T09:29:45.528Z,4.33
2018-08-14T09:32:17.821Z,4.03
2018-08-14T09:34:53.844Z,5.27
2018-08-14T09:37:36.226Z,4.60
2018-08-14T09:40:21.200Z,4.90
2018-08-14T09:43:01.777Z,4.20
2018-08-14T09:45:45.016Z,5.63
2018-08-14T09:48:22.930Z,6.50
2018-08-14T09:51:06.881Z,5.00
2018-08-14T09:53:45.197Z,5.97
2018-08-14T09:56:23.623Z,5.67
2018-08-14T09:59:01.403Z,7.00
2018-08-14T10:01:42.874Z,4.57
2018-08-14T10:04:28.387Z,5.60
2018-08-14T10:07:13.075Z,6.13
2018-08-14T10:09:48.695Z,4.60
2018-08-14T10:12:30.836Z,5.40
2018-08-14T10:15:06.027Z,5.37
2018-08-14T10:17:36.015Z,6.23
2018-08-14T10:20:14.744Z,5.63
2018-08-14T10:22:46.779Z,4.90
2018-08-14T10:25:27.672Z,5.40
2018-08-14T10:28:09.413Z,4.20
2018-08-14T10:30:47.264Z,4.80
2018-08-14T10:33:28.776Z,4.33
2018-08-14T10:36:08.814Z,4.50
2018-08-14T10:38:45.886Z,4.80
2018-08-14T10:41:21.804Z,4.97
2018-08-14T10:44:07.098Z,4.27
2018-08-14T10:46:44.604Z,4.63
2018-08-14T10:49:22.265Z,4.85
2018-08-14T10:52:07.314Z,3.87
2018-08-14T10:54:40.424Z,4.00
2018-08-14T10:57:15.110Z,4.30
2018-08-14T10:59:53.874Z,4.03
2018-08-14T11:02:37.738Z,4.28
2018-08-14T11:05:22.251Z,4.12
2018-08-14T11:08:06.727Z,3.42
2018-08-14T11:10:48.137Z,4.08
2018-08-14T11:13:31.135Z,4.00
2018-08-14T11:16:13.627Z,3.90
2018-08-14T11:18:50.696Z,4.00
2018-08-14T11:21:32.293Z,3.58
2018-08-14T11:24:02.531Z,3.77
2018-08-14T11:26:42.133Z,5.57
2018-08-14T11:29:13.950Z,3.80
2018-08-14T11:31:50.558Z,4.20
2018-08-14T11:34:31.980Z,3.83
2018-08-14T11:37:12.363Z,3.85
2018-08-14T11:39:50.890Z,5.03
2018-08-14T11:42:25.837Z,4.73
2018-08-14T11:45:08.906Z,3.73
2018-08-14T11:47:47.086Z,5.43
2018-08-14T11:50:27.572Z,4.03
2018-08-14T11:53:06.550Z,4.50
2018-08-14T11:55:48.006Z,4.07
2018-08-14T11:58:22.694Z,5.50
2018-08-14T12:01:06.117Z,6.27
2018-08-14T12:03:44.617Z,4.63
2018-08-14T12:06:25.289Z,3.93
2018-08-14T12:09:18.555Z,4.50
2018-08-14T12:11:59.667Z,4.97
2018-08-14T12:14:40.509Z,4.73
2018-08-14T12:17:18.095Z,5.70
2018-08-14T12:19:55.252Z,4.93
2018-08-14T12:22:38.839Z,4.60
2018-08-14T12:25:16.515Z,6.73
2018-08-14T12:27:53.545Z,5.70
2018-08-14T12:30:33.337Z,4.93
2018-08-14T12:33:12.634Z,5.07
2018-08-14T12:35:53.256Z,5.97
2018-08-14T12:38:34.751Z,4.67
2018-08-14T12:41:13.875Z,4.70
2018-08-14T12:43:50.420Z,5.17
2018-08-14T12:46:31.223Z,4.27
2018-08-14T12:49:13.173Z,5.20
2018-08-14T12:51:50.394Z,6.17
2018-08-14T12:54:38.028Z,6.23
2018-08-14T12:57:19.088Z,7.00
2018-08-14T13:00:02.791Z,4.63
2018-08-14T13:02:41.854Z,3.90
2018-08-14T13:05:19.658Z,3.43
2018-08-14T13:08:01.014Z,3.93
2018-08-14T13:10:42.889Z,4.03
2018-08-14T13:13:20.829Z,5.03
2018-08-14T13:16:06.140Z,2.97
2018-08-14T13:18:44.045Z,4.00
2018-08-14T13:21:36.602Z,5.43
2018-08-14T13:24:20.152Z,4.37
2018-08-14T13:27:01.635Z,3.73
2018-08-14T13:29:43.727Z,3.73
2018-08-14T13:32:26.712Z,5.33
2018-08-14T13:35:06.604Z,3.20
2018-08-14T13:37:46.714Z,2.70
2018-08-14T13:40:24.201Z,2.92
2018-08-14T13:43:08.851Z,3.40
2018-08-14T13:45:51.194Z,3.72
2018-08-14T13:48:25.153Z,2.55
2018-08-14T13:51:06.973Z,2.90
2018-08-14T13:53:43.728Z,3.17
2018-08-14T13:56:21.275Z,4.08
2018-08-14T13:59:01.117Z,5.72
2018-08-14T14:01:42.565Z,4.95
2018-08-14T14:04:17.118Z,3.42
2018-08-14T14:06:53.894Z,2.30
2018-08-14T14:09:38.380Z,2.83
2018-08-14T14:12:15.270Z,3.00
2018-08-14T14:14:47.731Z,3.33
2018-08-14T14:17:20.943Z,2.62
2018-08-14T14:20:01.565Z,2.58
2018-08-14T14:22:41.272Z,2.80
2018-08-14T14:25:17.545Z,3.22
2018-08-14T14:27:59.262Z,2.30
2018-08-14T14:30:41.971Z,2.90
2018-08-14T14:33:16.913Z,2.67
2018-08-14T14:35:51.733Z,2.43
2018-08-14T14:38:33.169Z,2.80
2018-08-14T14:41:14.292Z,3.87
2018-08-14T14:43:49.146Z,3.97
2018-08-14T14:46:27.652Z,3.27
2018-08-14T14:49:11.721Z,3.67
2018-08-14T14:51:57.749Z,4.43
2018-08-14T14:54:39.390Z,5.17
2018-08-14T14:57:13.099Z,5.83
2018-08-14T14:59:47.821Z,5.67
2018-08-14T15:02:26.390Z,5.60
2018-08-14T15:05:07.402Z,5.10
2018-08-14T15:07:44.838Z,4.27
2018-08-14T15:10:21.065Z,5.37
2018-08-14T15:13:06.264Z,4.37
2018-08-14T15:15:44.197Z,5.00
2018-08-14T15:18:19.013Z,5.53
2018-08-14T15:20:51.675Z,5.70
2018-08-14T15:23:26.311Z,4.67
2018-08-14T15:26:07.700Z,4.77
2018-08-14T15:29:10.651Z,3.90
2018-08-14T15:31:48.438Z,4.87
2018-08-14T15:34:38.367Z,4.90
2018-08-14T15:37:16.341Z,5.90
2018-08-14T15:39:52.328Z,5.63
2018-08-14T15:42:27.649Z,7.63
2018-08-14T15:45:05.099Z,6.10
2018-08-14T15:47:52.448Z,5.97
2018-08-14T15:50:39.199Z,7.03
2018-08-14T15:53:21.385Z,6.03
2018-08-14T15:56:09.244Z,6.23
2018-08-14T15:58:42.102Z,5.00
2018-08-14T16:01:19.512Z,6.30
2018-08-14T16:04:09.981Z,6.87
2018-08-14T16:06:49.197Z,6.30
2018-08-14T16:09:30.125Z,6.20
2018-08-14T16:12:19.691Z,6.20
2018-08-14T16:14:57.557Z,4.53
2018-08-14T16:17:39.286Z,5.70
2018-08-14T16:20:08.962Z,8.20
2018-08-14T16:22:45.255Z,5.83
2018-08-14T16:25:18.465Z,4.63
2018-08-14T16:27:58.106Z,4.90
2018-08-14T16:30:33.847Z,5.27
2018-08-14T16:33:13.153Z,4.93
2018-08-14T16:35:49.133Z,4.60
2018-08-14T16:38:37.759Z,4.37
2018-08-14T16:41:17.077Z,3.63
2018-08-14T16:43:54.370Z,5.30
2018-08-14T16:46:31.306Z,5.10
2018-08-14T16:49:13.063Z,5.37
2018-08-14T16:51:44.005Z,4.23
2018-08-14T16:54:32.965Z,4.60
2018-08-14T16:57:05.357Z,4.93
2018-08-14T16:59:36.032Z,5.60
2018-08-14T17:02:18.749Z,4.73
2018-08-14T17:04:57.832Z,4.97
2018-08-14T17:07:36.282Z,5.23
2018-08-14T17:10:12.390Z,4.67
2018-08-14T17:12:50.877Z,4.83
2018-08-14T17:15:37.014Z,4.43
2018-08-14T17:18:15.984Z,5.63
2018-08-14T17:20:46.057Z,5.30
2018-08-14T17:23:20.102Z,5.57
2018-08-14T17:25:52.047Z,6.07
2018-08-14T17:28:25.685Z,4.87
2018-08-14T17:30:54.830Z,4.83
2018-08-14T17:33:24.639Z,5.30
2018-08-14T17:35:53.718Z,6.50
2018-08-14T17:38:22.941Z,4.73
2018-08-14T17:40:56.094Z,5.20
2018-08-14T17:43:25.608Z,5.93
2018-08-14T17:45:55.281Z,5.20
2018-08-14T17:48:24.848Z,4.57
2018-08-14T17:50:54.340Z,3.50
2018-08-14T17:53:24.089Z,3.53
2018-08-14T17:55:53.847Z,4.00
2018-08-14T17:58:26.564Z,3.87
2018-08-14T18:00:57.930Z,3.10
2018-08-14T18:03:27.774Z,5.33
2018-08-14T18:05:57.464Z,4.30
2018-08-14T18:08:26.984Z,4.13
2018-08-14T18:10:56.842Z,3.67
2018-08-14T18:13:26.634Z,3.30
2018-08-14T18:15:56.610Z,5.17
2018-08-14T18:18:25.713Z,4.43
2018-08-14T18:20:55.828Z,3.93
2018-08-14T18:23:25.628Z,5.67
2018-08-14T18:25:55.305Z,4.20
2018-08-14T18:28:28.240Z,4.10
2018-08-14T18:30:57.750Z,4.87
2018-08-14T18:33:29.374Z,3.87
2018-08-14T18:35:58.520Z,4.10
2018-08-14T18:38:31.496Z,4.00
2018-08-14T18:41:01.033Z,4.83
2018-08-14T18:43:30.076Z,4.20
2018-08-14T18:45:59.210Z,4.43
2018-08-14T18:48:28.592Z,4.30
2018-08-14T18:50:58.016Z,4.20
2018-08-14T18:53:27.873Z,4.57
2018-08-14T18:55:58.268Z,4.37
2018-08-14T18:58:27.513Z,4.57
2018-08-14T19:00:59.438Z,3.67
2018-08-14T19:03:30.501Z,4.03
2018-08-14T19:05:59.727Z,3.83
2018-08-14T19:08:29.900Z,3.83
2018-08-14T19:10:59.143Z,4.53
2018-08-14T19:13:29.069Z,3.27
2018-08-14T19:15:58.851Z,3.03
2018-08-14T19:18:28.930Z,2.77
2018-08-14T19:20:58.625Z,2.87
2018-08-14T19:23:29.167Z,2.70
2018-08-14T19:25:58.989Z,3.70
2018-08-14T19:28:28.359Z,3.77
2018-08-14T19:30:57.663Z,2.67
2018-08-14T19:33:27.144Z,4.73
2018-08-14T19:35:56.594Z,3.63
2018-08-14T19:38:26.337Z,2.97
2018-08-14T19:40:55.956Z,5.27
2018-08-14T19:43:26.520Z,4.10
2018-08-14T19:45:56.837Z,2.87
2018-08-14T19:48:27.269Z,3.53
2018-08-14T19:50:58.046Z,3.40
2018-08-14T19:53:28.069Z,5.57
2018-08-14T19:56:07.869Z,3.57
2018-08-14T19:58:36.794Z,5.27
2018-08-14T20:01:05.435Z,4.47
2018-08-14T20:03:34.109Z,6.33
2018-08-14T20:06:04.889Z,6.23
2018-08-14T20:08:34.179Z,4.13
2018-08-14T20:11:03.264Z,5.33
2018-08-14T20:13:33.198Z,3.17
2018-08-14T20:16:09.940Z,5.73
2018-08-14T20:18:40.000Z,3.77
2018-08-14T20:21:09.322Z,3.87
2018-08-14T20:23:38.094Z,3.97
2018-08-14T20:26:06.977Z,4.07
2018-08-14T20:28:35.940Z,6.20
2018-08-14T20:31:04.842Z,4.07
2018-08-14T20:33:33.868Z,4.60
2018-08-14T20:36:02.989Z,4.40
2018-08-14T20:38:32.867Z,3.80
2018-08-14T20:41:02.346Z,4.93
2018-08-14T20:43:31.830Z,3.63
2018-08-14T20:46:01.273Z,7.27
2018-08-14T20:48:30.416Z,4.53
2018-08-14T20:51:00.358Z,4.03
2018-08-14T20:53:30.759Z,7.27
2018-08-14T20:56:00.751Z,5.67
2018-08-14T20:58:30.936Z,6.50
2018-08-14T21:01:00.289Z,4.30
2018-08-14T21:03:30.438Z,6.53
2018-08-14T21:06:00.796Z,9.47
2018-08-14T21:08:30.579Z,6.37
2018-08-14T21:11:00.768Z,5.47
2018-08-14T21:13:30.230Z,6.97
2018-08-14T21:16:05.208Z,6.43
2018-08-14T21:18:34.114Z,3.87
2018-08-14T21:21:03.110Z,7.03
2018-08-14T21:23:32.480Z,6.23
2018-08-14T21:26:01.814Z,3.57
2018-08-14T21:28:31.328Z,6.67
2018-08-14T21:31:00.878Z,6.13
2018-08-14T21:33:32.671Z,5.60
2018-08-14T21:36:01.972Z,5.20
2018-08-14T21:38:31.849Z,7.27
2018-08-14T21:41:01.578Z,4.50
2018-08-14T21:43:31.277Z,5.90
2018-08-14T21:46:00.594Z,8.67
2018-08-14T21:48:30.332Z,6.10
2018-08-14T21:51:00.190Z,8.50
2018-08-14T21:53:30.090Z,7.87
2018-08-14T21:55:59.516Z,7.57
2018-08-14T21:58:29.144Z,10.23
2018-08-14T22:01:03.932Z,6.20
2018-08-14T22:03:34.248Z,4.10
2018-08-14T22:06:03.229Z,8.80
2018-08-14T22:08:32.688Z,9.10
2018-08-14T22:11:01.981Z,11.43
2018-08-14T22:13:31.196Z,4.97
2018-08-14T22:16:00.934Z,6.73
2018-08-14T22:18:30.141Z,12.90
2018-08-14T22:21:00.795Z,5.87
2018-08-14T22:23:30.656Z,7.17
2018-08-14T22:26:00.252Z,11.83
2018-08-14T22:28:29.948Z,7.13
2018-08-14T22:30:59.747Z,8.00
2018-08-14T22:33:29.866Z,4.70
2018-08-14T22:35:59.547Z,7.70
2018-08-14T22:38:28.957Z,6.37
2018-08-14T22:40:58.438Z,7.23
2018-08-14T22:43:27.995Z,6.13
2018-08-14T22:45:58.202Z,5.80
2018-08-14T22:48:27.636Z,6.43
2018-08-14T22:50:57.430Z,8.03
2018-08-14T22:53:27.437Z,5.30
2018-08-14T22:55:57.094Z,5.47
2018-08-14T22:58:26.604Z,6.37
2018-08-14T23:01:00.136Z,5.60
2018-08-14T23:03:29.719Z,7.40
2018-08-14T23:05:59.468Z,7.70
2018-08-14T23:08:29.663Z,7.60
2018-08-14T23:11:00.608Z,6.47
2018-08-14T23:13:30.626Z,3.87
2018-08-14T23:16:06.138Z,4.40
2018-08-14T23:18:36.363Z,3.50
2018-08-14T23:21:05.578Z,6.70
2018-08-14T23:23:35.114Z,2.17
2018-08-14T23:26:03.944Z,2.83
2018-08-14T23:28:33.176Z,1.70
2018-08-14T23:31:02.123Z,2.83
2018-08-14T23:33:32.391Z,1.73
2018-08-14T23:36:01.782Z,3.40
2018-08-14T23:38:31.081Z,3.03
2018-08-14T23:41:01.546Z,2.50
2018-08-14T23:43:31.391Z,1.93
2018-08-14T23:46:00.891Z,3.57
2018-08-14T23:48:30.510Z,2.53
2018-08-14T23:51:00.265Z,1.83
2018-08-14T23:53:30.290Z,1.57
2018-08-14T23:56:00.368Z,1.13
2018-08-14T23:58:36.104Z,1.17
